createdAt,value
2019-06-18T00:01:26.164Z,22
2019-06-18T00:02:40.541Z,22
2019-06-18T00:03:51.524Z,22.1
2019-06-18T00:05:01.429Z,22.1
2019-06-18T00:06:11.354Z,22
2019-06-18T00:07:21.886Z,22.1
2019-06-18T00:08:33.734Z,22
2019-06-18T00:10:51.760Z,22
2019-06-18T00:11:56.886Z,22
2019-06-18T00:14:17.841Z,22.1
2019-06-18T00:15:52.222Z,22
2019-06-18T00:16:56.858Z,22.1
2019-06-18T00:18:10.656Z,22
2019-06-18T00:19:18.549Z,22
2019-06-18T00:20:26.369Z,22
2019-06-18T00:21:35.274Z,22
2019-06-18T00:22:44.104Z,22
2019-06-18T00:23:52.269Z,22
2019-06-18T00:24:57.437Z,22
2019-06-18T00:26:10.872Z,21.9
2019-06-18T00:27:24.011Z,21.7
2019-06-18T00:28:35.464Z,21.8
2019-06-18T00:29:45.374Z,21.8
2019-06-18T00:30:57.366Z,22
2019-06-18T00:32:05.744Z,21.8
2019-06-18T00:33:21.034Z,21.8
2019-06-18T00:34:27.369Z,21.8
2019-06-18T00:35:36.857Z,21.7
2019-06-18T00:36:43.138Z,21.9
2019-06-18T00:37:51.111Z,22
2019-06-18T00:39:56.023Z,21.8
2019-06-18T00:42:01.215Z,21.8
2019-06-18T00:43:06.712Z,22
2019-06-18T00:45:11.750Z,21.8
2019-06-18T00:47:17.913Z,21.9
2019-06-18T00:49:22.721Z,22
2019-06-18T00:50:28.280Z,21.9
2019-06-18T00:52:33.299Z,21.8
2019-06-18T00:54:41.298Z,21.8
2019-06-18T00:55:43.476Z,21.5
2019-06-18T00:56:48.216Z,21.6
2019-06-18T00:57:50.381Z,21.7
2019-06-18T00:59:58.325Z,21.9
2019-06-18T01:02:04.842Z,21.5
2019-06-18T01:03:09.341Z,21.6
2019-06-18T01:04:11.930Z,21.8
2019-06-18T01:05:14.751Z,21.8
2019-06-18T01:07:20.567Z,21.6
2019-06-18T01:09:28.757Z,21.7
2019-06-18T01:10:30.964Z,21.6
2019-06-18T01:11:33.181Z,21.5
2019-06-18T01:12:39.083Z,21.6
2019-06-18T01:14:47.744Z,21.5
2019-06-18T01:16:52.554Z,21.4
2019-06-18T01:17:58.026Z,21.6
2019-06-18T01:20:02.815Z,21.5
2019-06-18T01:22:10.583Z,21.6
2019-06-18T01:24:15.045Z,21.3
2019-06-18T01:25:17.238Z,21.4
2019-06-18T01:27:25.059Z,21.4
2019-06-18T01:29:29.953Z,21.5
2019-06-18T01:31:36.503Z,21.3
2019-06-18T01:32:38.716Z,21.4
2019-06-18T01:34:46.503Z,21.4
2019-06-18T01:36:53.825Z,21.5
2019-06-18T01:37:56.026Z,21.5
2019-06-18T01:38:58.542Z,21.5
2019-06-18T01:40:04.085Z,21.5
2019-06-18T01:42:08.838Z,21.4
2019-06-18T01:44:16.180Z,21.5
2019-06-18T01:45:18.928Z,21.4
2019-06-18T01:46:42.981Z,21.4
2019-06-18T01:47:45.938Z,21.4
2019-06-18T01:48:48.677Z,21.5
2019-06-18T01:49:50.888Z,21.3
2019-06-18T01:51:56.981Z,21.4
2019-06-18T01:54:03.687Z,21.4
2019-06-18T01:55:06.280Z,21.5
2019-06-18T01:57:11.360Z,21.3
2019-06-18T01:59:16.673Z,21.3
2019-06-18T02:00:19.210Z,21.2
2019-06-18T02:01:24.281Z,21.2
2019-06-18T02:02:26.817Z,21.1
2019-06-18T02:04:34.104Z,21.3
2019-06-18T02:06:38.804Z,21.2
2019-06-18T02:07:43.271Z,21.3
2019-06-18T02:09:47.947Z,21.3
2019-06-18T02:11:56.171Z,21.4
2019-06-18T02:14:04.863Z,21.3
2019-06-18T02:15:07.440Z,21.1
2019-06-18T02:17:13.859Z,21.2
2019-06-18T02:19:18.915Z,21.3
2019-06-18T02:21:26.685Z,21.1
2019-06-18T02:22:29.147Z,21
2019-06-18T02:24:36.995Z,21
2019-06-18T02:26:44.625Z,21
2019-06-18T02:28:52.535Z,20.9
2019-06-18T02:29:55.041Z,21
2019-06-18T02:32:04.207Z,21
2019-06-18T02:34:13.550Z,21
2019-06-18T02:36:18.578Z,20.8
2019-06-18T02:37:23.705Z,21.1
2019-06-18T02:39:28.928Z,21
2019-06-18T02:41:35.543Z,21
2019-06-18T02:42:38.002Z,20.8
2019-06-18T02:43:42.851Z,21
2019-06-18T02:44:45.414Z,21.1
2019-06-18T02:46:52.303Z,21.1
2019-06-18T02:49:03.613Z,20.9
2019-06-18T02:50:06.199Z,20.8
2019-06-18T02:51:09.195Z,20.9
2019-06-18T02:52:13.699Z,20.9
2019-06-18T02:54:18.165Z,21.1
2019-06-18T02:56:26.320Z,21
2019-06-18T02:57:28.506Z,21
2019-06-18T02:59:36.175Z,20.9
2019-06-18T03:01:43.991Z,20.8
2019-06-18T03:03:48.841Z,20.9
2019-06-18T03:04:53.857Z,20.9
2019-06-18T03:06:58.948Z,20.8
2019-06-18T03:09:05.931Z,20.7
2019-06-18T03:11:13.651Z,20.9
2019-06-18T03:12:15.829Z,20.8
2019-06-18T03:14:23.420Z,20.9
2019-06-18T03:16:28.568Z,20.6
2019-06-18T03:18:39.898Z,20.8
2019-06-18T03:19:43.666Z,20.9
2019-06-18T03:21:48.014Z,20.8
2019-06-18T03:23:55.237Z,20.7
2019-06-18T03:24:57.439Z,20.8
2019-06-18T03:26:00.269Z,20.7
2019-06-18T03:27:04.088Z,20.7
2019-06-18T03:29:09.128Z,20.8
2019-06-18T03:31:23.948Z,20.9
2019-06-18T03:32:27.920Z,20.6
2019-06-18T03:33:35.509Z,20.7
2019-06-18T03:34:38.454Z,20.6
2019-06-18T03:36:46.672Z,20.9
2019-06-18T03:38:53.462Z,20.7
2019-06-18T03:40:57.910Z,20.8
2019-06-18T03:42:03.289Z,20.9
2019-06-18T03:44:08.668Z,20.8
2019-06-18T03:46:15.993Z,20.8
2019-06-18T03:47:18.202Z,20.6
2019-06-18T03:48:23.460Z,20.6
2019-06-18T03:49:25.717Z,20.8
2019-06-18T03:51:30.155Z,20.8
2019-06-18T03:53:36.841Z,20.9
2019-06-18T03:54:39.441Z,20.9
2019-06-18T03:56:46.138Z,21
2019-06-18T03:58:53.290Z,20.8
2019-06-18T04:00:57.985Z,20.8
2019-06-18T04:02:03.212Z,21
2019-06-18T04:04:08.546Z,21.1
2019-06-18T04:06:17.049Z,20.9
2019-06-18T04:07:19.555Z,20.8
2019-06-18T04:08:24.166Z,20.8
2019-06-18T04:09:26.332Z,21
2019-06-18T04:11:33.681Z,21
2019-06-18T04:13:38.827Z,21.1
2019-06-18T04:14:44.087Z,21.1
2019-06-18T04:15:46.540Z,21
2019-06-18T04:16:48.747Z,20.9
2019-06-18T04:18:08.370Z,20.8
2019-06-18T04:19:13.209Z,20.8
2019-06-18T04:21:17.640Z,21
2019-06-18T04:23:23.683Z,21.1
2019-06-18T04:24:26.311Z,21
2019-06-18T04:26:33.512Z,21.2
2019-06-18T04:28:38.004Z,21.1
2019-06-18T04:30:46.698Z,21.2
2019-06-18T04:31:49.179Z,21.1
2019-06-18T04:33:56.844Z,21
2019-06-18T04:36:05.517Z,21.1
2019-06-18T04:37:07.701Z,21.3
2019-06-18T04:38:12.858Z,21.3
2019-06-18T04:39:15.461Z,21.3
2019-06-18T04:41:23.093Z,21.2
2019-06-18T04:43:27.524Z,21.2
2019-06-18T04:44:32.558Z,21.1
2019-06-18T04:46:37.373Z,21.3
2019-06-18T04:48:44.348Z,21.4
2019-06-18T04:50:53.226Z,21.5
2019-06-18T04:51:56.492Z,21.5
2019-06-18T04:54:04.540Z,21.6
2019-06-18T04:56:13.363Z,21.8
2019-06-18T04:58:19.199Z,21.8
2019-06-18T04:59:24.400Z,21.8
2019-06-18T05:01:33.175Z,21.6
2019-06-18T05:03:37.670Z,21.6
2019-06-18T05:05:45.479Z,21.6
2019-06-18T05:06:47.926Z,21.7
2019-06-18T05:08:56.108Z,22
2019-06-18T05:11:03.688Z,22.1
2019-06-18T05:13:08.777Z,21.9
2019-06-18T05:14:14.327Z,22.1
2019-06-18T05:16:23.437Z,22.5
2019-06-18T05:18:45.022Z,22.3
2019-06-18T05:20:53.329Z,22.3
2019-06-18T05:21:55.776Z,22.3
2019-06-18T05:22:58.239Z,22.3
2019-06-18T05:24:04.233Z,22.4
2019-06-18T05:26:10.119Z,22.6
2019-06-18T05:28:16.880Z,22.5
2019-06-18T05:29:19.404Z,22.5
2019-06-18T05:31:26.345Z,22.7
2019-06-18T05:33:33.400Z,22.6
2019-06-18T05:35:38.044Z,22.9
2019-06-18T05:36:42.929Z,22.8
2019-06-18T05:38:48.081Z,22.9
2019-06-18T05:40:56.059Z,23
2019-06-18T05:43:04.046Z,23.1
2019-06-18T05:44:07.069Z,23
2019-06-18T05:45:23.857Z,22.9
2019-06-18T05:46:26.340Z,23.2
2019-06-18T05:48:58.993Z,23.1
2019-06-18T05:50:04.078Z,23.3
2019-06-18T05:51:06.666Z,23.2
2019-06-18T05:53:14.312Z,23.4
2019-06-18T05:54:17.194Z,23.5
2019-06-18T05:55:22.297Z,23.4
2019-06-18T05:56:24.819Z,23.3
2019-06-18T05:58:33.813Z,23.5
2019-06-18T06:00:38.711Z,23.7
2019-06-18T06:01:44.932Z,23.7
2019-06-18T06:02:47.130Z,23.5
2019-06-18T06:03:56.824Z,23.7
2019-06-18T06:04:59.289Z,23.7
2019-06-18T06:06:04.434Z,23.8
2019-06-18T06:08:09.614Z,24.1
2019-06-18T06:10:17.071Z,23.9
2019-06-18T06:11:19.874Z,24
2019-06-18T06:13:26.317Z,24.1
2019-06-18T06:15:33.783Z,24
2019-06-18T06:16:36.247Z,24.2
2019-06-18T06:17:39.062Z,24.1
2019-06-18T06:18:44.722Z,24.2
2019-06-18T06:20:49.865Z,24.2
2019-06-18T06:22:56.980Z,24.3
2019-06-18T06:23:59.158Z,24.6
2019-06-18T06:26:08.011Z,24.7
2019-06-18T06:28:15.463Z,24.5
2019-06-18T06:30:23.236Z,24.4
2019-06-18T06:31:26.098Z,24.4
2019-06-18T06:33:33.842Z,24.5
2019-06-18T06:35:38.586Z,24.7
2019-06-18T06:37:45.926Z,25.2
2019-06-18T06:38:48.414Z,25
2019-06-18T06:40:56.126Z,25.1
2019-06-18T06:43:03.389Z,25.1
2019-06-18T06:45:08.672Z,25.1
2019-06-18T06:46:13.936Z,25.4
2019-06-18T06:48:19.459Z,25.2
2019-06-18T06:49:39.438Z,25.2
2019-06-18T06:50:44.685Z,25.2
2019-06-18T06:52:49.344Z,25.5
2019-06-18T06:53:53.799Z,25.3
2019-06-18T06:55:58.146Z,25.5
2019-06-18T06:58:33.723Z,25.6
2019-06-18T06:59:36.146Z,25.5
2019-06-18T07:00:38.393Z,25.7
2019-06-18T07:02:47.319Z,26
2019-06-18T07:03:53.011Z,26.2
2019-06-18T07:05:58.114Z,26
2019-06-18T07:08:06.551Z,25.8
2019-06-18T07:10:13.907Z,26.1
2019-06-18T07:11:16.971Z,26
2019-06-18T07:13:22.398Z,25.9
2019-06-18T07:15:27.723Z,25.8
2019-06-18T07:16:33.427Z,26
2019-06-18T07:17:35.707Z,26
2019-06-18T07:18:37.900Z,26
2019-06-18T07:19:58.198Z,26.3
2019-06-18T07:21:03.156Z,26.4
2019-06-18T07:22:12.797Z,26.4
2019-06-18T07:23:15.293Z,26.4
2019-06-18T07:25:19.778Z,26.5
2019-06-18T07:27:27.283Z,26.6
2019-06-18T07:28:29.734Z,26.4
2019-06-18T07:30:36.018Z,26.7
2019-06-18T07:32:44.273Z,26.8
2019-06-18T07:33:47.810Z,26.7
2019-06-18T07:34:50.352Z,26.7
2019-06-18T07:35:54.004Z,26.7
2019-06-18T07:37:59.120Z,26.6
2019-06-18T07:40:06.705Z,26.5
2019-06-18T07:41:09.111Z,26.8
2019-06-18T07:43:17.797Z,27
2019-06-18T07:45:24.077Z,27.1
2019-06-18T07:47:29.171Z,26.6
2019-06-18T07:48:34.582Z,26.9
2019-06-18T07:50:39.705Z,27.2
2019-06-18T07:52:45.871Z,26.7
2019-06-18T07:54:53.825Z,26.9
2019-06-18T07:55:56.957Z,27.2
2019-06-18T07:58:03.678Z,27.3
2019-06-18T08:00:09.692Z,27.2
2019-06-18T08:02:16.169Z,27.2
2019-06-18T08:03:18.581Z,27.3
2019-06-18T08:05:26.313Z,27.6
2019-06-18T08:07:34.405Z,27.6
2019-06-18T08:08:37.196Z,27.3
2019-06-18T08:09:39.721Z,27.2
2019-06-18T08:10:44.343Z,27.3
2019-06-18T08:12:49.659Z,27.3
2019-06-18T08:14:56.891Z,27.8
2019-06-18T08:15:59.409Z,27.8
2019-06-18T08:17:04.791Z,27.6
2019-06-18T08:18:07.321Z,27.7
2019-06-18T08:20:40.325Z,27.7
2019-06-18T08:21:46.098Z,27.8
2019-06-18T08:22:48.600Z,28
2019-06-18T08:24:55.609Z,28
2019-06-18T08:25:58.602Z,28.2
2019-06-18T08:27:03.419Z,28.1
2019-06-18T08:28:07.220Z,28
2019-06-18T08:30:36.594Z,28.1
2019-06-18T08:32:06.481Z,28.1
2019-06-18T08:33:08.946Z,28.3
2019-06-18T08:35:17.126Z,28.2
2019-06-18T08:37:24.156Z,28.2
2019-06-18T08:39:28.553Z,28.6
2019-06-18T08:40:33.336Z,28.6
2019-06-18T08:42:38.030Z,28.7
2019-06-18T08:44:45.779Z,28.7
2019-06-18T08:45:47.968Z,28.7
2019-06-18T08:46:53.314Z,28.8
2019-06-18T08:47:55.871Z,28.9
2019-06-18T08:50:04.070Z,28.9
2019-06-18T08:52:08.470Z,28.9
2019-06-18T08:53:14.128Z,28.8
2019-06-18T08:54:16.614Z,29
2019-06-18T08:55:19.144Z,28.9
2019-06-18T08:57:27.716Z,29.2
2019-06-18T08:59:34.219Z,29.1
2019-06-18T09:00:37.088Z,29.2
2019-06-18T09:01:39.257Z,29.3
2019-06-18T09:02:44.921Z,29.5
2019-06-18T09:04:53.557Z,29.8
2019-06-18T09:06:59.269Z,29.7
2019-06-18T09:08:09.495Z,29.8
2019-06-18T09:09:17.147Z,29.7
2019-06-18T09:10:28.945Z,30
2019-06-18T09:11:40.075Z,29.8
2019-06-18T09:12:53.103Z,30
2019-06-18T09:14:13.256Z,30.2
2019-06-18T09:15:48.849Z,30.2
2019-06-18T09:16:56.127Z,29.9
2019-06-18T09:18:05.329Z,29.6
2019-06-18T09:19:14.930Z,29.7
2019-06-18T09:20:25.018Z,30
2019-06-18T09:22:52.890Z,30.3
2019-06-18T09:25:17.119Z,30.1
2019-06-18T09:26:25.887Z,30.3
2019-06-18T09:27:34.393Z,29.8
2019-06-18T09:28:47.135Z,30.2
2019-06-18T09:29:59.573Z,30.8
2019-06-18T09:31:16.452Z,30.9
2019-06-18T09:32:25.499Z,31
2019-06-18T09:33:35.333Z,31.3
2019-06-18T09:34:46.210Z,31.4
2019-06-18T09:35:56.196Z,31.5
2019-06-18T09:38:13.628Z,31.3
2019-06-18T09:39:16.812Z,31.3
2019-06-18T09:41:24.274Z,31.6
2019-06-18T09:43:29.669Z,31.8
2019-06-18T09:45:36.679Z,31.6
2019-06-18T09:46:39.185Z,31.5
2019-06-18T09:48:46.258Z,31.5
2019-06-18T09:50:54.120Z,31.5
2019-06-18T09:52:59.489Z,32.3
2019-06-18T09:54:04.113Z,32.2
2019-06-18T09:56:09.114Z,31.8
2019-06-18T09:58:16.646Z,31.6
2019-06-18T10:00:25.468Z,31.6
2019-06-18T10:01:27.633Z,31.8
2019-06-18T10:03:33.761Z,31.9
2019-06-18T10:05:39.090Z,32.3
2019-06-18T10:06:44.452Z,32.4
2019-06-18T10:08:49.432Z,32.2
2019-06-18T10:10:57.163Z,32.4
2019-06-18T10:12:06.832Z,32.3
2019-06-18T10:13:09.016Z,32.8
2019-06-18T10:14:14.263Z,32.9
2019-06-18T10:15:16.726Z,32.5
2019-06-18T10:16:18.930Z,32.5
2019-06-18T10:18:26.453Z,32.7
2019-06-18T10:20:33.987Z,32.9
2019-06-18T10:21:46.281Z,33.4
2019-06-18T10:22:48.488Z,33.3
2019-06-18T10:23:53.586Z,33.3
2019-06-18T10:25:59.023Z,33.1
2019-06-18T10:28:06.128Z,33.1
2019-06-18T10:30:07.317Z,33.1
2019-06-18T10:31:10.525Z,33.3
2019-06-18T10:33:16.026Z,33.7
2019-06-18T10:35:23.561Z,33.7
2019-06-18T10:36:25.910Z,33.5
2019-06-18T10:38:33.825Z,33.2
2019-06-18T10:40:38.861Z,33.1
2019-06-18T10:42:43.995Z,33.9
2019-06-18T10:43:46.852Z,33.9
2019-06-18T10:45:51.825Z,33.4
2019-06-18T10:47:59.818Z,34
2019-06-18T10:49:22.473Z,34.2
2019-06-18T10:50:24.833Z,34
2019-06-18T10:51:27.380Z,34.4
2019-06-18T10:52:29.593Z,34.3
2019-06-18T10:53:34.567Z,34.5
2019-06-18T10:55:39.277Z,34.4
2019-06-18T10:57:46.374Z,34.6
2019-06-18T10:58:48.583Z,34.7
2019-06-18T11:00:55.952Z,34.4
2019-06-18T11:03:03.840Z,33.5
2019-06-18T11:05:09.305Z,33.3
2019-06-18T11:06:14.735Z,33.2
2019-06-18T11:08:20.315Z,33.7
2019-06-18T11:10:27.074Z,33.5
2019-06-18T11:11:29.200Z,33.3
2019-06-18T11:12:33.648Z,33.5
2019-06-18T11:13:36.127Z,33.3
2019-06-18T11:15:43.991Z,33.6
2019-06-18T11:17:48.965Z,33.7
2019-06-18T11:18:54.054Z,33.9
2019-06-18T11:19:56.246Z,33.8
2019-06-18T11:20:58.420Z,33.7
2019-06-18T11:22:15.526Z,33.7
2019-06-18T11:23:39.142Z,33.8
2019-06-18T11:24:44.081Z,33.7
2019-06-18T11:25:46.631Z,33.5
2019-06-18T11:27:51.334Z,33
2019-06-18T11:29:57.337Z,33.8
2019-06-18T11:30:59.848Z,33.3
2019-06-18T11:33:07.081Z,32.9
2019-06-18T11:35:13.985Z,33.6
2019-06-18T11:36:16.568Z,33.8
2019-06-18T11:37:19.050Z,33.8
2019-06-18T11:38:23.755Z,33.2
2019-06-18T11:40:28.584Z,33.4
2019-06-18T11:42:33.587Z,33.4
2019-06-18T11:43:36.126Z,33
2019-06-18T11:45:44.400Z,32.9
2019-06-18T11:47:49.085Z,32.8
2019-06-18T11:49:56.970Z,33.4
2019-06-18T11:50:59.952Z,33.8
2019-06-18T11:53:07.510Z,33.4
2019-06-18T11:55:14.234Z,32.9
2019-06-18T11:57:19.424Z,33.1
2019-06-18T11:58:21.990Z,33
2019-06-18T12:00:27.579Z,33.1
2019-06-18T12:02:34.418Z,32.9
2019-06-18T12:03:36.984Z,33.2
2019-06-18T12:04:39.142Z,33.5
2019-06-18T12:05:44.424Z,33.7
2019-06-18T12:07:53.514Z,33.2
2019-06-18T12:09:58.997Z,33.6
2019-06-18T12:12:09.350Z,33.4
2019-06-18T12:13:11.605Z,33.4
2019-06-18T12:15:16.396Z,33.1
2019-06-18T12:17:23.556Z,33.5
2019-06-18T12:18:25.737Z,33.4
2019-06-18T12:19:27.927Z,33.3
2019-06-18T12:20:34.240Z,33.3
2019-06-18T12:22:54.414Z,33.2
2019-06-18T12:24:59.476Z,33.5
2019-06-18T12:27:06.695Z,34
2019-06-18T12:28:09.167Z,34.2
2019-06-18T12:30:17.659Z,34.3
2019-06-18T12:32:25.737Z,33.8
2019-06-18T12:34:35.449Z,33.4
2019-06-18T12:35:38.015Z,33.3
2019-06-18T12:37:46.151Z,33.4
2019-06-18T12:39:54.032Z,33.3
2019-06-18T12:41:58.786Z,33.8
2019-06-18T12:43:04.469Z,33.6
2019-06-18T12:45:09.293Z,33.6
2019-06-18T12:47:16.315Z,33.4
2019-06-18T12:48:19.363Z,33.4
2019-06-18T12:49:24.056Z,33.2
2019-06-18T12:50:26.317Z,33.1
2019-06-18T12:52:33.945Z,33.4
2019-06-18T12:54:38.346Z,33.3
2019-06-18T12:55:40.731Z,33.3
2019-06-18T12:56:45.239Z,33
2019-06-18T12:57:47.696Z,33.2
2019-06-18T12:59:54.263Z,33.4
2019-06-18T13:02:04.254Z,34.3
2019-06-18T13:03:07.491Z,34.3
2019-06-18T13:04:12.884Z,34.5
2019-06-18T13:05:15.555Z,34.5
2019-06-18T13:07:23.273Z,33.4
2019-06-18T13:09:27.625Z,33.6
2019-06-18T13:10:29.791Z,33.7
2019-06-18T13:11:34.330Z,33.5
2019-06-18T13:12:37.282Z,33.2
2019-06-18T13:14:44.193Z,33.3
2019-06-18T13:16:49.103Z,33.7
2019-06-18T13:17:54.069Z,33.9
2019-06-18T13:19:58.909Z,34
2019-06-18T13:22:07.300Z,33.8
2019-06-18T13:23:33.668Z,33.8
2019-06-18T13:24:36.987Z,34.3
2019-06-18T13:26:44.070Z,34.5
2019-06-18T13:27:46.284Z,34.9
2019-06-18T13:29:54.299Z,34.9
2019-06-18T13:31:59.519Z,35.3
2019-06-18T13:34:07.905Z,35
2019-06-18T13:35:15.813Z,35.2
2019-06-18T13:36:19.436Z,35.5
2019-06-18T13:37:24.079Z,35.6
2019-06-18T13:39:28.798Z,35.9
2019-06-18T13:41:36.196Z,35.9
2019-06-18T13:42:38.736Z,36.1
2019-06-18T13:44:48.551Z,36
2019-06-18T13:46:57.522Z,36.2
2019-06-18T13:49:04.326Z,36.1
2019-06-18T13:50:07.158Z,35.8
2019-06-18T13:52:16.766Z,36
2019-06-18T13:53:50.509Z,36.1
2019-06-18T13:54:54.505Z,35.8
2019-06-18T13:56:59.248Z,35.2
2019-06-18T13:59:06.683Z,35.5
2019-06-18T14:00:09.279Z,35.4
2019-06-18T14:02:16.589Z,35
2019-06-18T14:04:24.096Z,34.8
2019-06-18T14:06:29.239Z,35.1
2019-06-18T14:07:37.058Z,35.2
2019-06-18T14:09:41.700Z,35
2019-06-18T14:11:50.188Z,35.4
2019-06-18T14:13:57.577Z,35.8
2019-06-18T14:15:04.572Z,36
2019-06-18T14:17:09.462Z,35.5
2019-06-18T14:19:17.561Z,35.3
2019-06-18T14:20:22.469Z,35.3
2019-06-18T14:21:25.074Z,35.2
2019-06-18T14:22:27.265Z,34.9
2019-06-18T14:24:35.225Z,34.9
2019-06-18T14:26:39.969Z,35.1
2019-06-18T14:27:44.464Z,35.3
2019-06-18T14:28:47.043Z,35.7
2019-06-18T14:29:49.915Z,35.8
2019-06-18T14:31:57.131Z,35.9
2019-06-18T14:34:04.588Z,35.9
2019-06-18T14:35:12.552Z,36
2019-06-18T14:36:17.003Z,35.8
2019-06-18T14:37:19.577Z,35.9
2019-06-18T14:39:29.074Z,36
2019-06-18T14:40:39.314Z,35.8
2019-06-18T14:41:45.173Z,35.3
2019-06-18T14:43:50.675Z,35.3
2019-06-18T14:44:54.155Z,35
2019-06-18T14:46:59.098Z,35.1
2019-06-18T14:49:07.810Z,35
2019-06-18T14:51:17.788Z,34.7
2019-06-18T14:52:23.673Z,34.8
2019-06-18T14:53:29.858Z,35
2019-06-18T14:54:34.257Z,34.4
2019-06-18T14:56:38.873Z,34.1
2019-06-18T14:58:46.989Z,33.7
2019-06-18T14:59:49.468Z,34.1
2019-06-18T15:01:56.677Z,34.3
2019-06-18T15:04:03.514Z,33.8
2019-06-18T15:06:08.521Z,33.8
2019-06-18T15:07:10.971Z,33.9
2019-06-18T15:09:16.049Z,34
2019-06-18T15:11:23.796Z,33.6
2019-06-18T15:13:28.611Z,33.7
2019-06-18T15:14:33.876Z,33.7
2019-06-18T15:16:38.944Z,33.4
2019-06-18T15:18:47.320Z,33.9
2019-06-18T15:20:54.597Z,34
2019-06-18T15:21:56.762Z,34
2019-06-18T15:24:01.474Z,34
2019-06-18T15:26:09.864Z,33.7
2019-06-18T15:27:12.382Z,33.8
2019-06-18T15:29:17.107Z,34.4
2019-06-18T15:31:23.694Z,33.9
2019-06-18T15:33:28.873Z,34.1
2019-06-18T15:34:33.416Z,34.5
2019-06-18T15:36:37.840Z,34.1
2019-06-18T15:38:45.091Z,34.1
2019-06-18T15:39:47.268Z,34
2019-06-18T15:40:49.455Z,33.9
2019-06-18T15:41:52.552Z,33.9
2019-06-18T15:43:57.678Z,34.3
2019-06-18T15:46:06.376Z,34.5
2019-06-18T15:47:08.875Z,34.5
2019-06-18T15:48:14.804Z,34.2
2019-06-18T15:49:17.222Z,34.2
2019-06-18T15:51:23.955Z,34.6
2019-06-18T15:53:28.378Z,34.5
2019-06-18T15:54:33.699Z,34.3
2019-06-18T15:56:39.024Z,34.1
2019-06-18T15:58:46.728Z,34
2019-06-18T16:01:18.478Z,34.7
2019-06-18T16:02:23.656Z,34.9
2019-06-18T16:03:26.672Z,35.1
2019-06-18T16:04:29.198Z,35.1
2019-06-18T16:06:36.546Z,34.7
2019-06-18T16:08:44.097Z,34.6
2019-06-18T16:10:49.204Z,34.5
2019-06-18T16:11:54.278Z,34.1
2019-06-18T16:13:58.987Z,33.9
2019-06-18T16:16:04.734Z,33.8
2019-06-18T16:18:09.712Z,34
2019-06-18T16:19:15.062Z,34.2
2019-06-18T16:21:23.433Z,34.2
2019-06-18T16:23:48.007Z,34.2
2019-06-18T16:25:01.394Z,34.2
2019-06-18T16:26:16.451Z,34.4
2019-06-18T16:28:24.008Z,34.7
2019-06-18T16:29:26.219Z,34.7
2019-06-18T16:30:29.514Z,35
2019-06-18T16:31:34.701Z,35
2019-06-18T16:33:39.190Z,35.3
2019-06-18T16:35:43.746Z,35.3
2019-06-18T16:36:46.173Z,35.4
2019-06-18T16:38:53.880Z,35.7
2019-06-18T16:40:58.683Z,35.4
2019-06-18T16:43:06.461Z,35.7
2019-06-18T16:44:08.674Z,35.6
2019-06-18T16:46:17.175Z,35.2
2019-06-18T16:48:25.003Z,35.5
2019-06-18T16:50:29.939Z,35.3
2019-06-18T16:51:33.974Z,35
2019-06-18T16:53:44.063Z,35
2019-06-18T16:55:48.793Z,35.3
2019-06-18T16:57:56.835Z,35
2019-06-18T16:58:59.012Z,35.1
2019-06-18T17:01:06.153Z,35.4
2019-06-18T17:03:13.883Z,34.9
2019-06-18T17:04:16.354Z,34.8
2019-06-18T17:05:20.227Z,35
2019-06-18T17:06:24.150Z,34.8
2019-06-18T17:08:29.251Z,34.7
2019-06-18T17:10:36.920Z,34.5
2019-06-18T17:11:39.663Z,34.6
2019-06-18T17:12:44.671Z,34.3
2019-06-18T17:13:46.853Z,34.3
2019-06-18T17:15:53.340Z,34.1
2019-06-18T17:17:58.055Z,33.9
2019-06-18T17:19:00.573Z,34
2019-06-18T17:21:06.075Z,33.8
2019-06-18T17:23:13.482Z,33.6
2019-06-18T17:25:19.157Z,33.6
2019-06-18T17:26:49.679Z,33.4
2019-06-18T17:27:54.542Z,33.4
2019-06-18T17:28:57.004Z,33.4
2019-06-18T17:31:01.429Z,33.5
2019-06-18T17:33:06.576Z,33.5
2019-06-18T17:35:14.544Z,33.5
2019-06-18T17:36:16.708Z,33.4
2019-06-18T17:38:23.902Z,33.3
2019-06-18T17:40:28.692Z,33
2019-06-18T17:42:36.087Z,33.2
2019-06-18T17:44:07.550Z,33
2019-06-18T17:45:09.697Z,32.9
2019-06-18T17:46:13.929Z,32.8
2019-06-18T17:48:18.363Z,32.7
2019-06-18T17:50:26.343Z,32.8
2019-06-18T17:52:36.869Z,32.8
2019-06-18T17:53:42.083Z,32.5
2019-06-18T17:56:07.099Z,32.3
2019-06-18T17:58:15.701Z,32.3
2019-06-18T18:00:20.434Z,32
2019-06-18T18:02:26.651Z,32.1
2019-06-18T18:03:28.839Z,31.7
2019-06-18T18:05:42.639Z,31.9
2019-06-18T18:07:47.541Z,31.7
2019-06-18T18:09:54.363Z,31.8
2019-06-18T18:10:56.878Z,31.8
2019-06-18T18:13:04.894Z,31.6
2019-06-18T18:15:12.499Z,31.6
2019-06-18T18:17:24.155Z,31.7
2019-06-18T18:18:26.320Z,31.7
2019-06-18T18:20:34.120Z,31.8
2019-06-18T18:22:39.487Z,31.8
2019-06-18T18:24:45.876Z,31.7
2019-06-18T18:25:48.349Z,31.6
2019-06-18T18:27:56.041Z,31.4
2019-06-18T18:30:03.332Z,31.4
2019-06-18T18:31:05.898Z,31.4
2019-06-18T18:32:08.340Z,31.3
2019-06-18T18:33:13.586Z,31.3
2019-06-18T18:35:18.751Z,31.2
2019-06-18T18:37:26.368Z,31.1
2019-06-18T18:38:28.866Z,31.1
2019-06-18T18:39:33.997Z,30.9
2019-06-18T18:40:36.176Z,31
2019-06-18T18:42:44.091Z,30.9
2019-06-18T18:44:49.114Z,30.7
2019-06-18T18:45:54.288Z,30.5
2019-06-18T18:47:58.708Z,30.5
2019-06-18T18:50:07.345Z,30.3
2019-06-18T18:52:11.690Z,30.5
2019-06-18T18:53:14.867Z,30.5
2019-06-18T18:55:19.607Z,30.4
2019-06-18T18:56:39.242Z,30.2
2019-06-18T18:57:43.702Z,30.4
2019-06-18T18:59:48.799Z,30.2
2019-06-18T19:00:53.706Z,30.1
2019-06-18T19:02:58.464Z,29.9
2019-06-18T19:05:04.689Z,29.9
2019-06-18T19:06:06.864Z,29.8
2019-06-18T19:07:09.343Z,29.7
2019-06-18T19:08:14.242Z,29.7
2019-06-18T19:10:19.469Z,29.6
2019-06-18T19:12:24.536Z,29.6
2019-06-18T19:13:26.703Z,29.4
2019-06-18T19:14:29.599Z,29.3
2019-06-18T19:15:33.941Z,29.4
2019-06-18T19:17:38.974Z,29.3
2019-06-18T19:19:46.697Z,29.3
2019-06-18T19:20:52.036Z,29.3
2019-06-18T19:22:56.861Z,28.9
2019-06-18T19:25:04.663Z,28.9
2019-06-18T19:27:09.337Z,28.9
2019-06-18T19:28:13.807Z,28.8
2019-06-18T19:30:18.497Z,28.6
2019-06-18T19:32:25.729Z,28.7
2019-06-18T19:34:32.910Z,28.7
2019-06-18T19:35:35.378Z,28.6
2019-06-18T19:37:42.268Z,28.4
2019-06-18T19:39:47.070Z,28.5
2019-06-18T19:40:58.815Z,28.3
2019-06-18T19:42:03.781Z,28.3
2019-06-18T19:43:05.949Z,28.3
2019-06-18T19:45:14.170Z,28.2
2019-06-18T19:47:18.605Z,28.1
2019-06-18T19:49:25.931Z,28.2
2019-06-18T19:50:28.081Z,28.1
2019-06-18T19:51:42.814Z,28.1
2019-06-18T19:52:45.548Z,28.1
2019-06-18T19:54:52.455Z,28.1
2019-06-18T19:57:16.766Z,28
2019-06-18T19:59:23.714Z,27.9
2019-06-18T20:00:25.879Z,27.8
2019-06-18T20:02:34.309Z,27.7
2019-06-18T20:04:39.671Z,27.6
2019-06-18T20:06:46.031Z,27.4
2019-06-18T20:07:48.185Z,27.4
2019-06-18T20:09:08.113Z,27.4
2019-06-18T20:10:12.988Z,27.3
2019-06-18T20:12:17.824Z,27.2
2019-06-18T20:14:25.674Z,27.1
2019-06-18T20:15:27.840Z,27.1
2019-06-18T20:16:30.317Z,27.1
2019-06-18T20:17:33.871Z,27.1
2019-06-18T20:19:38.938Z,27.1
2019-06-18T20:21:46.294Z,27.3
2019-06-18T20:22:48.865Z,27.3
2019-06-18T20:24:56.204Z,27.1
2019-06-18T20:27:03.867Z,27
2019-06-18T20:44:34.740Z,25.6
2019-06-18T20:45:36.974Z,26.4
2019-06-18T20:46:39.785Z,26.6
2019-06-18T20:48:47.321Z,26.5
2019-06-18T20:50:54.511Z,26.5
2019-06-18T20:51:57.163Z,26.5
2019-06-18T20:52:59.625Z,26.4
2019-06-18T20:54:05.086Z,26.4
2019-06-18T20:56:09.997Z,26.4
2019-06-18T20:58:15.916Z,26.5
2019-06-18T20:59:18.161Z,26.5
2019-06-18T21:00:21.064Z,26.4
2019-06-18T21:01:23.506Z,26.3
2019-06-18T21:03:28.810Z,26.3
2019-06-18T21:05:36.339Z,26.3
2019-06-18T21:06:38.526Z,26.2
2019-06-18T21:08:46.269Z,26.3
2019-06-18T21:10:54.069Z,26.2
2019-06-18T21:12:58.917Z,26.1
2019-06-18T21:14:04.490Z,26.2
2019-06-18T21:16:12.130Z,26.2
2019-06-18T21:18:17.647Z,26
2019-06-18T21:20:25.122Z,26
2019-06-18T21:21:27.275Z,26
2019-06-18T21:23:33.398Z,25.9
2019-06-18T21:25:38.178Z,25.8
2019-06-18T21:28:27.205Z,25.9
2019-06-18T21:29:29.382Z,25.7
2019-06-18T21:30:34.395Z,25.8
2019-06-18T21:31:36.878Z,25.6
2019-06-18T21:32:39.154Z,25.5
2019-06-18T21:33:43.807Z,25.6
2019-06-18T21:35:48.319Z,25.6
2019-06-18T21:37:55.259Z,25.7
2019-06-18T21:38:57.430Z,25.6
2019-06-18T21:39:59.928Z,25.7
2019-06-18T21:41:04.106Z,25.6
2019-06-18T21:43:08.783Z,25.6
2019-06-18T21:45:16.167Z,25.6
2019-06-18T21:46:18.303Z,25.7
2019-06-18T21:48:27.966Z,25.5
2019-06-18T21:50:34.915Z,25.6
2019-06-18T21:52:39.542Z,25.4
2019-06-18T21:53:44.970Z,25.4
2019-06-18T21:55:49.355Z,25.5
2019-06-18T21:58:15.578Z,25.5
2019-06-18T21:59:18.303Z,25.5
2019-06-18T22:00:23.326Z,25.6
2019-06-18T22:01:25.923Z,25.4
2019-06-18T22:02:28.333Z,25.4
2019-06-18T22:03:33.412Z,25.5
2019-06-18T22:04:54.422Z,25.5
2019-06-18T22:05:56.542Z,25.5